sensor_id;sensor_type;location;lat;lon;timestamp;P1;durP1;ratioP1;P2;durP2;ratioP2
70426;SDS011;57872;55.432;37.248;2022-08-19T00:02:31;14.73;;;6.93;;
70426;SDS011;57872;55.432;37.248;2022-08-19T00:07:32;16.80;;;7.40;;
70426;SDS011;57872;55.432;37.248;2022-08-19T00:12:33;15.13;;;7.20;;
70426;SDS011;57872;55.432;37.248;2022-08-19T00:17:33;20.42;;;8.68;;
70426;SDS011;57872;55.432;37.248;2022-08-19T00:22:34;17.90;;;8.25;;
70426;SDS011;57872;55.432;37.248;2022-08-19T00:27:34;20.33;;;9.15;;
70426;SDS011;57872;55.432;37.248;2022-08-19T00:32:35;17.98;;;10.27;;
70426;SDS011;57872;55.432;37.248;2022-08-19T00:37:35;16.30;;;8.38;;
70426;SDS011;57872;55.432;37.248;2022-08-19T00:42:36;18.67;;;9.20;;
70426;SDS011;57872;55.432;37.248;2022-08-19T00:47:37;19.55;;;10.25;;
70426;SDS011;57872;55.432;37.248;2022-08-19T00:52:39;23.90;;;10.13;;
70426;SDS011;57872;55.432;37.248;2022-08-19T00:57:55;22.40;;;11.82;;
70426;SDS011;57872;55.432;37.248;2022-08-19T01:02:56;20.38;;;10.65;;
70426;SDS011;57872;55.432;37.248;2022-08-19T01:07:58;17.75;;;9.90;;
70426;SDS011;57872;55.432;37.248;2022-08-19T01:12:59;15.52;;;10.02;;
70426;SDS011;57872;55.432;37.248;2022-08-19T01:18:01;18.92;;;9.70;;
70426;SDS011;57872;55.432;37.248;2022-08-19T01:23:04;18.45;;;9.18;;
70426;SDS011;57872;55.432;37.248;2022-08-19T01:28:04;18.10;;;7.68;;
70426;SDS011;57872;55.432;37.248;2022-08-19T01:33:05;16.30;;;8.48;;
70426;SDS011;57872;55.432;37.248;2022-08-19T01:38:06;14.65;;;7.72;;
70426;SDS011;57872;55.432;37.248;2022-08-19T01:43:07;15.98;;;9.38;;
70426;SDS011;57872;55.432;37.248;2022-08-19T01:48:08;14.88;;;8.90;;
70426;SDS011;57872;55.432;37.248;2022-08-19T01:53:10;17.60;;;8.30;;
70426;SDS011;57872;55.432;37.248;2022-08-19T01:58:12;15.25;;;9.70;;
70426;SDS011;57872;55.432;37.248;2022-08-19T02:03:13;15.13;;;8.93;;
70426;SDS011;57872;55.432;37.248;2022-08-19T02:08:13;13.50;;;7.80;;
70426;SDS011;57872;55.432;37.248;2022-08-19T02:13:14;16.25;;;8.00;;
70426;SDS011;57872;55.432;37.248;2022-08-19T02:18:14;15.15;;;7.93;;
70426;SDS011;57872;55.432;37.248;2022-08-19T02:23:15;14.27;;;7.65;;
70426;SDS011;57872;55.432;37.248;2022-08-19T02:28:16;13.60;;;7.53;;
70426;SDS011;57872;55.432;37.248;2022-08-19T02:33:17;15.35;;;8.57;;
70426;SDS011;57872;55.432;37.248;2022-08-19T02:38:17;17.60;;;8.20;;
70426;SDS011;57872;55.432;37.248;2022-08-19T02:43:27;13.93;;;8.05;;
70426;SDS011;57872;55.432;37.248;2022-08-19T02:48:28;23.73;;;10.93;;
70426;SDS011;57872;55.432;37.248;2022-08-19T02:53:29;11.80;;;6.97;;
70426;SDS011;57872;55.432;37.248;2022-08-19T02:58:29;12.70;;;7.10;;
70426;SDS011;57872;55.432;37.248;2022-08-19T03:03:30;16.90;;;6.68;;
70426;SDS011;57872;55.432;37.248;2022-08-19T03:08:32;11.87;;;6.87;;
70426;SDS011;57872;55.432;37.248;2022-08-19T03:13:32;12.13;;;6.63;;
70426;SDS011;57872;55.432;37.248;2022-08-19T03:18:33;18.35;;;6.78;;
70426;SDS011;57872;55.432;37.248;2022-08-19T03:23:33;13.98;;;6.13;;
70426;SDS011;57872;55.432;37.248;2022-08-19T03:28:34;14.70;;;6.00;;
70426;SDS011;57872;55.432;37.248;2022-08-19T03:33:35;9.68;;;5.63;;
70426;SDS011;57872;55.432;37.248;2022-08-19T03:38:36;15.23;;;6.00;;
70426;SDS011;57872;55.432;37.248;2022-08-19T03:43:38;15.37;;;6.53;;
70426;SDS011;57872;55.432;37.248;2022-08-19T03:48:39;14.85;;;6.15;;
70426;SDS011;57872;55.432;37.248;2022-08-19T03:53:40;12.43;;;5.65;;
70426;SDS011;57872;55.432;37.248;2022-08-19T03:58:41;14.25;;;7.50;;
70426;SDS011;57872;55.432;37.248;2022-08-19T04:03:41;13.07;;;6.18;;
70426;SDS011;57872;55.432;37.248;2022-08-19T04:08:42;9.20;;;5.43;;
70426;SDS011;57872;55.432;37.248;2022-08-19T04:13:43;12.52;;;5.28;;
70426;SDS011;57872;55.432;37.248;2022-08-19T04:18:44;10.48;;;4.40;;
70426;SDS011;57872;55.432;37.248;2022-08-19T04:23:45;13.70;;;5.10;;
70426;SDS011;57872;55.432;37.248;2022-08-19T04:28:45;10.77;;;4.90;;
70426;SDS011;57872;55.432;37.248;2022-08-19T04:33:46;11.60;;;4.72;;
70426;SDS011;57872;55.432;37.248;2022-08-19T04:38:47;12.70;;;5.13;;
70426;SDS011;57872;55.432;37.248;2022-08-19T04:43:48;12.23;;;5.35;;
70426;SDS011;57872;55.432;37.248;2022-08-19T04:48:49;12.93;;;5.80;;
70426;SDS011;57872;55.432;37.248;2022-08-19T04:53:49;12.57;;;5.45;;
70426;SDS011;57872;55.432;37.248;2022-08-19T04:58:51;14.18;;;5.03;;
70426;SDS011;57872;55.432;37.248;2022-08-19T05:03:52;13.77;;;5.18;;
70426;SDS011;57872;55.432;37.248;2022-08-19T05:08:53;16.00;;;5.00;;
70426;SDS011;57872;55.432;37.248;2022-08-19T05:13:53;11.43;;;4.80;;
70426;SDS011;57872;55.432;37.248;2022-08-19T05:18:54;11.10;;;4.82;;
70426;SDS011;57872;55.432;37.248;2022-08-19T05:24:13;11.32;;;5.60;;
70426;SDS011;57872;55.432;37.248;2022-08-19T05:29:15;13.30;;;5.32;;
70426;SDS011;57872;55.432;37.248;2022-08-19T05:34:18;10.85;;;5.00;;
70426;SDS011;57872;55.432;37.248;2022-08-19T05:39:21;11.70;;;5.30;;
70426;SDS011;57872;55.432;37.248;2022-08-19T05:44:22;11.52;;;4.90;;
70426;SDS011;57872;55.432;37.248;2022-08-19T05:49:23;13.87;;;5.87;;
70426;SDS011;57872;55.432;37.248;2022-08-19T05:54:25;9.48;;;4.85;;
70426;SDS011;57872;55.432;37.248;2022-08-19T05:59:25;13.75;;;5.70;;
70426;SDS011;57872;55.432;37.248;2022-08-19T06:04:26;15.55;;;4.90;;
70426;SDS011;57872;55.432;37.248;2022-08-19T06:09:27;13.48;;;4.85;;
70426;SDS011;57872;55.432;37.248;2022-08-19T06:14:29;11.45;;;5.13;;
70426;SDS011;57872;55.432;37.248;2022-08-19T06:19:30;15.23;;;5.55;;
70426;SDS011;57872;55.432;37.248;2022-08-19T06:24:30;15.35;;;5.65;;
70426;SDS011;57872;55.432;37.248;2022-08-19T06:29:32;15.02;;;5.60;;
70426;SDS011;57872;55.432;37.248;2022-08-19T06:34:33;20.17;;;6.32;;
70426;SDS011;57872;55.432;37.248;2022-08-19T06:39:39;11.98;;;5.20;;
70426;SDS011;57872;55.432;37.248;2022-08-19T06:44:41;16.20;;;5.47;;
70426;SDS011;57872;55.432;37.248;2022-08-19T06:49:42;13.00;;;5.20;;
70426;SDS011;57872;55.432;37.248;2022-08-19T06:54:42;15.00;;;5.03;;
70426;SDS011;57872;55.432;37.248;2022-08-19T06:59:43;12.07;;;5.55;;
70426;SDS011;57872;55.432;37.248;2022-08-19T07:04:43;12.55;;;5.55;;
70426;SDS011;57872;55.432;37.248;2022-08-19T07:09:43;13.70;;;6.40;;
70426;SDS011;57872;55.432;37.248;2022-08-19T07:14:44;15.40;;;5.63;;
70426;SDS011;57872;55.432;37.248;2022-08-19T07:19:46;15.98;;;6.72;;
70426;SDS011;57872;55.432;37.248;2022-08-19T07:24:46;15.20;;;5.63;;
70426;SDS011;57872;55.432;37.248;2022-08-19T07:29:47;14.23;;;5.60;;
70426;SDS011;57872;55.432;37.248;2022-08-19T07:34:47;16.08;;;5.75;;
70426;SDS011;57872;55.432;37.248;2022-08-19T07:39:48;13.35;;;6.00;;
70426;SDS011;57872;55.432;37.248;2022-08-19T07:44:48;12.32;;;6.10;;
70426;SDS011;57872;55.432;37.248;2022-08-19T07:49:49;16.33;;;6.45;;
70426;SDS011;57872;55.432;37.248;2022-08-19T07:54:49;18.38;;;6.63;;
70426;SDS011;57872;55.432;37.248;2022-08-19T07:59:50;14.45;;;6.70;;
70426;SDS011;57872;55.432;37.248;2022-08-19T08:04:50;14.55;;;6.20;;
70426;SDS011;57872;55.432;37.248;2022-08-19T08:10:09;16.10;;;6.30;;
70426;SDS011;57872;55.432;37.248;2022-08-19T08:15:12;13.90;;;6.20;;
70426;SDS011;57872;55.432;37.248;2022-08-19T08:20:16;10.13;;;5.75;;
70426;SDS011;57872;55.432;37.248;2022-08-19T08:25:18;10.40;;;5.30;;
70426;SDS011;57872;55.432;37.248;2022-08-19T08:30:20;15.50;;;5.32;;
70426;SDS011;57872;55.432;37.248;2022-08-19T08:35:22;48.17;;;8.52;;
70426;SDS011;57872;55.432;37.248;2022-08-19T08:40:26;18.10;;;5.80;;
70426;SDS011;57872;55.432;37.248;2022-08-19T08:45:28;15.95;;;5.32;;
70426;SDS011;57872;55.432;37.248;2022-08-19T08:50:31;8.70;;;4.97;;
70426;SDS011;57872;55.432;37.248;2022-08-19T08:55:35;13.82;;;5.28;;
70426;SDS011;57872;55.432;37.248;2022-08-19T09:00:37;16.27;;;5.63;;
70426;SDS011;57872;55.432;37.248;2022-08-19T09:10:39;9.30;;;4.63;;
70426;SDS011;57872;55.432;37.248;2022-08-19T09:15:47;17.20;;;4.97;;
70426;SDS011;57872;55.432;37.248;2022-08-19T09:20:49;18.27;;;4.68;;
70426;SDS011;57872;55.432;37.248;2022-08-19T09:25:49;11.90;;;4.40;;
70426;SDS011;57872;55.432;37.248;2022-08-19T09:30:51;10.75;;;4.45;;
70426;SDS011;57872;55.432;37.248;2022-08-19T09:36:01;12.93;;;4.90;;
70426;SDS011;57872;55.432;37.248;2022-08-19T09:41:07;16.98;;;4.53;;
70426;SDS011;57872;55.432;37.248;2022-08-19T09:46:08;9.25;;;4.50;;
70426;SDS011;57872;55.432;37.248;2022-08-19T09:51:12;14.98;;;4.72;;
70426;SDS011;57872;55.432;37.248;2022-08-19T09:56:16;12.75;;;4.72;;
70426;SDS011;57872;55.432;37.248;2022-08-19T10:01:24;12.82;;;4.85;;
70426;SDS011;57872;55.432;37.248;2022-08-19T10:06:26;13.00;;;5.18;;
70426;SDS011;57872;55.432;37.248;2022-08-19T10:11:30;15.32;;;4.93;;
70426;SDS011;57872;55.432;37.248;2022-08-19T10:16:30;11.63;;;4.60;;
70426;SDS011;57872;55.432;37.248;2022-08-19T10:21:31;13.83;;;4.67;;
70426;SDS011;57872;55.432;37.248;2022-08-19T10:26:33;13.15;;;5.40;;
70426;SDS011;57872;55.432;37.248;2022-08-19T10:31:36;14.77;;;4.55;;
70426;SDS011;57872;55.432;37.248;2022-08-19T10:36:36;16.67;;;4.40;;
70426;SDS011;57872;55.432;37.248;2022-08-19T10:41:39;21.20;;;5.10;;
70426;SDS011;57872;55.432;37.248;2022-08-19T10:46:41;8.32;;;4.35;;
70426;SDS011;57872;55.432;37.248;2022-08-19T10:57:01;10.38;;;4.40;;
70426;SDS011;57872;55.432;37.248;2022-08-19T11:02:04;16.13;;;4.93;;
70426;SDS011;57872;55.432;37.248;2022-08-19T11:07:05;13.98;;;4.55;;
70426;SDS011;57872;55.432;37.248;2022-08-19T11:12:05;9.30;;;4.60;;
70426;SDS011;57872;55.432;37.248;2022-08-19T11:17:06;11.83;;;5.20;;
70426;SDS011;57872;55.432;37.248;2022-08-19T11:22:07;17.17;;;4.93;;
70426;SDS011;57872;55.432;37.248;2022-08-19T11:27:09;11.88;;;4.72;;
70426;SDS011;57872;55.432;37.248;2022-08-19T11:32:10;13.50;;;4.40;;
70426;SDS011;57872;55.432;37.248;2022-08-19T11:37:10;11.37;;;3.97;;
70426;SDS011;57872;55.432;37.248;2022-08-19T11:42:11;10.37;;;3.90;;
70426;SDS011;57872;55.432;37.248;2022-08-19T11:47:30;9.60;;;3.55;;
70426;SDS011;57872;55.432;37.248;2022-08-19T11:52:31;12.67;;;3.97;;
70426;SDS011;57872;55.432;37.248;2022-08-19T11:57:31;14.33;;;4.30;;
70426;SDS011;57872;55.432;37.248;2022-08-19T12:02:32;13.67;;;4.87;;
70426;SDS011;57872;55.432;37.248;2022-08-19T12:07:33;10.67;;;4.23;;
70426;SDS011;57872;55.432;37.248;2022-08-19T12:12:33;9.68;;;3.90;;
70426;SDS011;57872;55.432;37.248;2022-08-19T12:17:34;10.83;;;4.80;;
70426;SDS011;57872;55.432;37.248;2022-08-19T12:22:35;12.27;;;4.63;;
70426;SDS011;57872;55.432;37.248;2022-08-19T12:27:35;15.60;;;4.73;;
70426;SDS011;57872;55.432;37.248;2022-08-19T12:32:36;15.07;;;8.47;;
70426;SDS011;57872;55.432;37.248;2022-08-19T12:37:37;13.10;;;8.80;;
70426;SDS011;57872;55.432;37.248;2022-08-19T12:42:38;12.77;;;8.77;;
70426;SDS011;57872;55.432;37.248;2022-08-19T12:47:42;16.38;;;9.10;;
70426;SDS011;57872;55.432;37.248;2022-08-19T12:52:43;14.27;;;7.43;;
70426;SDS011;57872;55.432;37.248;2022-08-19T12:57:43;16.37;;;8.33;;
70426;SDS011;57872;55.432;37.248;2022-08-19T13:02:45;17.77;;;8.87;;
70426;SDS011;57872;55.432;37.248;2022-08-19T13:07:46;16.33;;;8.18;;
70426;SDS011;57872;55.432;37.248;2022-08-19T13:12:48;17.90;;;6.83;;
70426;SDS011;57872;55.432;37.248;2022-08-19T13:17:49;14.68;;;6.57;;
70426;SDS011;57872;55.432;37.248;2022-08-19T13:22:50;12.55;;;5.95;;
70426;SDS011;57872;55.432;37.248;2022-08-19T13:27:51;13.50;;;6.95;;
70426;SDS011;57872;55.432;37.248;2022-08-19T13:32:52;12.90;;;7.23;;
70426;SDS011;57872;55.432;37.248;2022-08-19T13:38:13;18.45;;;7.60;;
70426;SDS011;57872;55.432;37.248;2022-08-19T13:43:13;12.55;;;7.57;;
70426;SDS011;57872;55.432;37.248;2022-08-19T13:48:15;14.15;;;7.90;;
70426;SDS011;57872;55.432;37.248;2022-08-19T13:53:16;20.80;;;11.27;;
70426;SDS011;57872;55.432;37.248;2022-08-19T13:58:17;20.53;;;10.87;;
70426;SDS011;57872;55.432;37.248;2022-08-19T14:03:17;20.67;;;14.13;;
70426;SDS011;57872;55.432;37.248;2022-08-19T14:08:18;21.00;;;15.00;;
70426;SDS011;57872;55.432;37.248;2022-08-19T14:13:20;39.00;;;28.73;;
70426;SDS011;57872;55.432;37.248;2022-08-19T14:23:21;32.50;;;21.75;;
70426;SDS011;57872;55.432;37.248;2022-08-19T14:28:22;29.00;;;22.73;;
70426;SDS011;57872;55.432;37.248;2022-08-19T14:33:23;34.33;;;22.10;;
70426;SDS011;57872;55.432;37.248;2022-08-19T14:38:23;33.40;;;21.87;;
70426;SDS011;57872;55.432;37.248;2022-08-19T14:43:24;29.87;;;20.90;;
70426;SDS011;57872;55.432;37.248;2022-08-19T14:48:24;26.67;;;20.57;;
70426;SDS011;57872;55.432;37.248;2022-08-19T14:53:25;33.63;;;22.37;;
70426;SDS011;57872;55.432;37.248;2022-08-19T14:58:25;32.13;;;18.87;;
70426;SDS011;57872;55.432;37.248;2022-08-19T15:03:27;26.03;;;19.77;;
70426;SDS011;57872;55.432;37.248;2022-08-19T15:08:28;26.02;;;19.48;;
70426;SDS011;57872;55.432;37.248;2022-08-19T15:13:29;25.83;;;17.95;;
70426;SDS011;57872;55.432;37.248;2022-08-19T15:18:30;23.48;;;14.90;;
70426;SDS011;57872;55.432;37.248;2022-08-19T15:23:30;18.63;;;13.90;;
70426;SDS011;57872;55.432;37.248;2022-08-19T15:28:31;21.90;;;14.90;;
70426;SDS011;57872;55.432;37.248;2022-08-19T15:33:33;19.80;;;15.27;;
70426;SDS011;57872;55.432;37.248;2022-08-19T15:38:36;21.50;;;14.80;;
70426;SDS011;57872;55.432;37.248;2022-08-19T15:43:37;21.47;;;15.13;;
70426;SDS011;57872;55.432;37.248;2022-08-19T15:48:40;19.75;;;14.35;;
70426;SDS011;57872;55.432;37.248;2022-08-19T15:53:41;18.33;;;12.83;;
70426;SDS011;57872;55.432;37.248;2022-08-19T15:58:42;21.10;;;12.70;;
70426;SDS011;57872;55.432;37.248;2022-08-19T16:04:01;22.60;;;12.38;;
70426;SDS011;57872;55.432;37.248;2022-08-19T16:09:21;17.73;;;11.52;;
70426;SDS011;57872;55.432;37.248;2022-08-19T16:14:22;17.52;;;11.05;;
70426;SDS011;57872;55.432;37.248;2022-08-19T16:19:23;15.43;;;10.00;;
70426;SDS011;57872;55.432;37.248;2022-08-19T16:24:25;18.47;;;8.77;;
70426;SDS011;57872;55.432;37.248;2022-08-19T16:29:26;12.98;;;8.15;;
70426;SDS011;57872;55.432;37.248;2022-08-19T16:34:27;14.33;;;7.07;;
70426;SDS011;57872;55.432;37.248;2022-08-19T16:39:27;18.23;;;6.53;;
70426;SDS011;57872;55.432;37.248;2022-08-19T16:44:28;19.40;;;6.37;;
70426;SDS011;57872;55.432;37.248;2022-08-19T16:49:29;14.27;;;6.70;;
70426;SDS011;57872;55.432;37.248;2022-08-19T16:54:29;19.33;;;7.60;;
70426;SDS011;57872;55.432;37.248;2022-08-19T16:59:30;14.90;;;7.77;;
70426;SDS011;57872;55.432;37.248;2022-08-19T17:04:30;14.93;;;6.30;;
70426;SDS011;57872;55.432;37.248;2022-08-19T17:09:31;15.60;;;6.47;;
70426;SDS011;57872;55.432;37.248;2022-08-19T17:14:31;11.48;;;5.68;;
70426;SDS011;57872;55.432;37.248;2022-08-19T17:19:31;14.90;;;5.30;;
70426;SDS011;57872;55.432;37.248;2022-08-19T17:24:32;13.17;;;5.20;;
70426;SDS011;57872;55.432;37.248;2022-08-19T17:29:33;11.07;;;4.70;;
70426;SDS011;57872;55.432;37.248;2022-08-19T17:34:33;14.45;;;5.05;;
70426;SDS011;57872;55.432;37.248;2022-08-19T17:39:33;14.33;;;5.20;;
70426;SDS011;57872;55.432;37.248;2022-08-19T17:44:35;12.00;;;4.83;;
70426;SDS011;57872;55.432;37.248;2022-08-19T17:49:35;11.52;;;5.35;;
70426;SDS011;57872;55.432;37.248;2022-08-19T17:54:36;15.20;;;5.00;;
70426;SDS011;57872;55.432;37.248;2022-08-19T17:59:38;10.77;;;5.05;;
70426;SDS011;57872;55.432;37.248;2022-08-19T18:04:39;17.63;;;7.53;;
70426;SDS011;57872;55.432;37.248;2022-08-19T18:09:39;13.20;;;7.13;;
70426;SDS011;57872;55.432;37.248;2022-08-19T18:14:40;21.33;;;10.30;;
70426;SDS011;57872;55.432;37.248;2022-08-19T18:19:41;15.77;;;7.40;;
70426;SDS011;57872;55.432;37.248;2022-08-19T18:24:42;14.00;;;5.80;;
70426;SDS011;57872;55.432;37.248;2022-08-19T18:29:43;27.55;;;15.82;;
70426;SDS011;57872;55.432;37.248;2022-08-19T18:34:44;14.97;;;6.70;;
70426;SDS011;57872;55.432;37.248;2022-08-19T18:39:45;15.60;;;5.88;;
70426;SDS011;57872;55.432;37.248;2022-08-19T18:45:04;12.32;;;6.60;;
70426;SDS011;57872;55.432;37.248;2022-08-19T18:50:24;12.48;;;5.57;;
70426;SDS011;57872;55.432;37.248;2022-08-19T18:55:24;17.15;;;8.40;;
70426;SDS011;57872;55.432;37.248;2022-08-19T19:00:28;13.88;;;5.70;;
70426;SDS011;57872;55.432;37.248;2022-08-19T19:05:29;14.80;;;5.50;;
70426;SDS011;57872;55.432;37.248;2022-08-19T19:10:29;14.95;;;5.57;;
70426;SDS011;57872;55.432;37.248;2022-08-19T19:15:30;12.65;;;5.30;;
70426;SDS011;57872;55.432;37.248;2022-08-19T19:20:32;12.27;;;5.18;;
70426;SDS011;57872;55.432;37.248;2022-08-19T19:25:32;14.32;;;5.32;;
70426;SDS011;57872;55.432;37.248;2022-08-19T19:30:33;10.50;;;4.67;;
70426;SDS011;57872;55.432;37.248;2022-08-19T19:35:34;12.25;;;5.55;;
70426;SDS011;57872;55.432;37.248;2022-08-19T19:40:34;15.68;;;5.75;;
70426;SDS011;57872;55.432;37.248;2022-08-19T19:45:35;14.80;;;5.45;;
70426;SDS011;57872;55.432;37.248;2022-08-19T19:50:37;13.82;;;5.65;;
70426;SDS011;57872;55.432;37.248;2022-08-19T19:55:37;15.48;;;5.55;;
70426;SDS011;57872;55.432;37.248;2022-08-19T20:00:40;15.93;;;5.60;;
70426;SDS011;57872;55.432;37.248;2022-08-19T20:05:40;15.88;;;5.43;;
70426;SDS011;57872;55.432;37.248;2022-08-19T20:10:41;20.65;;;6.30;;
70426;SDS011;57872;55.432;37.248;2022-08-19T20:15:42;15.02;;;6.75;;
70426;SDS011;57872;55.432;37.248;2022-08-19T20:20:43;17.63;;;6.97;;
70426;SDS011;57872;55.432;37.248;2022-08-19T20:25:45;14.30;;;5.80;;
70426;SDS011;57872;55.432;37.248;2022-08-19T20:30:46;16.48;;;6.18;;
70426;SDS011;57872;55.432;37.248;2022-08-19T20:35:46;20.50;;;6.20;;
70426;SDS011;57872;55.432;37.248;2022-08-19T20:40:47;18.67;;;5.88;;
70426;SDS011;57872;55.432;37.248;2022-08-19T20:45:47;14.32;;;5.90;;
70426;SDS011;57872;55.432;37.248;2022-08-19T20:50:48;13.80;;;5.32;;
70426;SDS011;57872;55.432;37.248;2022-08-19T20:55:49;14.38;;;5.90;;
70426;SDS011;57872;55.432;37.248;2022-08-19T21:00:50;14.88;;;5.72;;
70426;SDS011;57872;55.432;37.248;2022-08-19T21:05:51;15.80;;;5.18;;
70426;SDS011;57872;55.432;37.248;2022-08-19T21:10:53;11.55;;;5.35;;
70426;SDS011;57872;55.432;37.248;2022-08-19T21:15:53;14.23;;;5.57;;
70426;SDS011;57872;55.432;37.248;2022-08-19T21:20:54;14.27;;;5.55;;
70426;SDS011;57872;55.432;37.248;2022-08-19T21:25:56;13.13;;;5.43;;
70426;SDS011;57872;55.432;37.248;2022-08-19T21:30:57;16.42;;;4.93;;
70426;SDS011;57872;55.432;37.248;2022-08-19T21:35:58;15.75;;;5.40;;
70426;SDS011;57872;55.432;37.248;2022-08-19T21:41:00;16.35;;;5.85;;
70426;SDS011;57872;55.432;37.248;2022-08-19T21:46:01;15.13;;;5.20;;
70426;SDS011;57872;55.432;37.248;2022-08-19T21:51:02;12.80;;;5.63;;
70426;SDS011;57872;55.432;37.248;2022-08-19T21:56:03;13.15;;;5.47;;
70426;SDS011;57872;55.432;37.248;2022-08-19T22:01:04;14.07;;;5.95;;
70426;SDS011;57872;55.432;37.248;2022-08-19T22:06:05;12.63;;;6.15;;
70426;SDS011;57872;55.432;37.248;2022-08-19T22:11:06;13.98;;;5.78;;
70426;SDS011;57872;55.432;37.248;2022-08-19T22:16:06;13.68;;;6.15;;
70426;SDS011;57872;55.432;37.248;2022-08-19T22:21:07;14.20;;;6.35;;
70426;SDS011;57872;55.432;37.248;2022-08-19T22:26:08;16.08;;;6.63;;
70426;SDS011;57872;55.432;37.248;2022-08-19T22:31:09;15.32;;;6.68;;
70426;SDS011;57872;55.432;37.248;2022-08-19T22:36:10;14.00;;;6.25;;
70426;SDS011;57872;55.432;37.248;2022-08-19T22:41:10;13.27;;;6.72;;
70426;SDS011;57872;55.432;37.248;2022-08-19T22:46:11;15.48;;;6.38;;
70426;SDS011;57872;55.432;37.248;2022-08-19T22:51:11;13.48;;;5.90;;
70426;SDS011;57872;55.432;37.248;2022-08-19T22:56:30;14.65;;;6.40;;
70426;SDS011;57872;55.432;37.248;2022-08-19T23:01:31;17.02;;;7.05;;
70426;SDS011;57872;55.432;37.248;2022-08-19T23:06:31;16.45;;;6.63;;
70426;SDS011;57872;55.432;37.248;2022-08-19T23:11:32;20.33;;;6.93;;
70426;SDS011;57872;55.432;37.248;2022-08-19T23:16:34;13.05;;;6.22;;
70426;SDS011;57872;55.432;37.248;2022-08-19T23:21:35;16.50;;;6.65;;
70426;SDS011;57872;55.432;37.248;2022-08-19T23:26:36;13.80;;;6.55;;
70426;SDS011;57872;55.432;37.248;2022-08-19T23:31:37;15.13;;;6.40;;
70426;SDS011;57872;55.432;37.248;2022-08-19T23:36:37;13.30;;;6.68;;
70426;SDS011;57872;55.432;37.248;2022-08-19T23:41:39;14.55;;;7.03;;
70426;SDS011;57872;55.432;37.248;2022-08-19T23:46:39;20.10;;;7.55;;
70426;SDS011;57872;55.432;37.248;2022-08-19T23:51:40;15.07;;;6.95;;
70426;SDS011;57872;55.432;37.248;2022-08-19T23:56:40;13.23;;;7.30;;
